sensor_id;sensor_type;location;lat;lon;timestamp;P1;durP1;ratioP1;P2;durP2;ratioP2
22415;SDS011;12204;50.600;4.608;2023-03-21T00:03:14;2.42;;;0.88;;
22415;SDS011;12204;50.600;4.608;2023-03-21T00:08:20;2.55;;;1.02;;
22415;SDS011;12204;50.600;4.608;2023-03-21T00:13:27;3.28;;;1.10;;
22415;SDS011;12204;50.600;4.608;2023-03-21T00:18:33;2.65;;;0.90;;
22415;SDS011;12204;50.600;4.608;2023-03-21T00:23:43;1.83;;;0.90;;
22415;SDS011;12204;50.600;4.608;2023-03-21T00:28:47;3.38;;;0.90;;
22415;SDS011;12204;50.600;4.608;2023-03-21T00:33:54;2.30;;;0.90;;
22415;SDS011;12204;50.600;4.608;2023-03-21T00:38:59;2.33;;;1.00;;
22415;SDS011;12204;50.600;4.608;2023-03-21T00:44:03;2.65;;;0.90;;
22415;SDS011;12204;50.600;4.608;2023-03-21T00:49:06;2.75;;;1.00;;
22415;SDS011;12204;50.600;4.608;2023-03-21T00:54:11;2.80;;;1.00;;
22415;SDS011;12204;50.600;4.608;2023-03-21T00:59:15;2.88;;;0.93;;
22415;SDS011;12204;50.600;4.608;2023-03-21T01:04:18;2.13;;;0.82;;
22415;SDS011;12204;50.600;4.608;2023-03-21T01:09:28;2.85;;;1.10;;
22415;SDS011;12204;50.600;4.608;2023-03-21T01:14:31;2.65;;;0.93;;
22415;SDS011;12204;50.600;4.608;2023-03-21T01:19:35;3.70;;;1.20;;
22415;SDS011;12204;50.600;4.608;2023-03-21T01:24:54;2.30;;;0.88;;
22415;SDS011;12204;50.600;4.608;2023-03-21T01:30:17;2.75;;;0.90;;
22415;SDS011;12204;50.600;4.608;2023-03-21T01:35:25;2.30;;;0.90;;
22415;SDS011;12204;50.600;4.608;2023-03-21T01:40:33;2.20;;;0.90;;
22415;SDS011;12204;50.600;4.608;2023-03-21T01:46:15;2.65;;;0.98;;
22415;SDS011;12204;50.600;4.608;2023-03-21T01:52:16;1.90;;;0.90;;
22415;SDS011;12204;50.600;4.608;2023-03-21T01:57:40;2.08;;;0.90;;
22415;SDS011;12204;50.600;4.608;2023-03-21T02:03:07;1.95;;;0.90;;
22415;SDS011;12204;50.600;4.608;2023-03-21T02:08:40;3.58;;;1.10;;
22415;SDS011;12204;50.600;4.608;2023-03-21T02:13:49;2.60;;;0.90;;
22415;SDS011;12204;50.600;4.608;2023-03-21T02:31:48;2.25;;;0.90;;
22415;SDS011;12204;50.600;4.608;2023-03-21T02:37:21;3.33;;;0.98;;
22415;SDS011;12204;50.600;4.608;2023-03-21T02:42:42;2.08;;;0.90;;
22415;SDS011;12204;50.600;4.608;2023-03-21T02:48:07;2.28;;;0.88;;
22415;SDS011;12204;50.600;4.608;2023-03-21T02:53:33;3.10;;;1.00;;
22415;SDS011;12204;50.600;4.608;2023-03-21T02:58:42;2.30;;;0.85;;
22415;SDS011;12204;50.600;4.608;2023-03-21T03:03:46;2.63;;;0.90;;
22415;SDS011;12204;50.600;4.608;2023-03-21T03:08:54;2.58;;;0.90;;
22415;SDS011;12204;50.600;4.608;2023-03-21T03:14:25;2.88;;;1.00;;
22415;SDS011;12204;50.600;4.608;2023-03-21T03:20:14;3.08;;;1.02;;
22415;SDS011;12204;50.600;4.608;2023-03-21T03:25:31;2.50;;;0.90;;
22415;SDS011;12204;50.600;4.608;2023-03-21T03:30:47;2.72;;;0.90;;
22415;SDS011;12204;50.600;4.608;2023-03-21T03:36:14;2.60;;;0.90;;
22415;SDS011;12204;50.600;4.608;2023-03-21T03:41:34;2.85;;;0.90;;
22415;SDS011;12204;50.600;4.608;2023-03-21T03:47:10;2.93;;;1.00;;
22415;SDS011;12204;50.600;4.608;2023-03-21T03:52:35;2.15;;;0.90;;
22415;SDS011;12204;50.600;4.608;2023-03-21T03:57:57;2.17;;;0.85;;
22415;SDS011;12204;50.600;4.608;2023-03-21T04:03:03;2.33;;;1.00;;
22415;SDS011;12204;50.600;4.608;2023-03-21T04:08:07;2.65;;;0.98;;
22415;SDS011;12204;50.600;4.608;2023-03-21T04:13:17;3.10;;;1.00;;
22415;SDS011;12204;50.600;4.608;2023-03-21T04:18:34;2.97;;;1.00;;
22415;SDS011;12204;50.600;4.608;2023-03-21T04:23:40;3.22;;;0.90;;
22415;SDS011;12204;50.600;4.608;2023-03-21T04:28:45;2.60;;;0.98;;
22415;SDS011;12204;50.600;4.608;2023-03-21T04:34:07;2.20;;;0.80;;
22415;SDS011;12204;50.600;4.608;2023-03-21T04:39:17;2.80;;;0.90;;
22415;SDS011;12204;50.600;4.608;2023-03-21T04:44:25;2.92;;;1.00;;
22415;SDS011;12204;50.600;4.608;2023-03-21T04:49:28;2.30;;;0.90;;
22415;SDS011;12204;50.600;4.608;2023-03-21T04:54:32;2.60;;;0.93;;
22415;SDS011;12204;50.600;4.608;2023-03-21T04:59:37;2.50;;;0.88;;
22415;SDS011;12204;50.600;4.608;2023-03-21T05:04:42;2.10;;;1.00;;
22415;SDS011;12204;50.600;4.608;2023-03-21T05:09:46;2.65;;;0.88;;
22415;SDS011;12204;50.600;4.608;2023-03-21T05:14:52;2.65;;;1.00;;
22415;SDS011;12204;50.600;4.608;2023-03-21T05:19:55;2.42;;;0.90;;
22415;SDS011;12204;50.600;4.608;2023-03-21T05:24:59;2.20;;;0.85;;
22415;SDS011;12204;50.600;4.608;2023-03-21T05:30:17;2.88;;;0.90;;
22415;SDS011;12204;50.600;4.608;2023-03-21T05:35:25;2.25;;;0.93;;
22415;SDS011;12204;50.600;4.608;2023-03-21T05:40:32;1.70;;;0.77;;
22415;SDS011;12204;50.600;4.608;2023-03-21T05:45:38;3.20;;;0.90;;
22415;SDS011;12204;50.600;4.608;2023-03-21T05:50:43;2.63;;;0.95;;
22415;SDS011;12204;50.600;4.608;2023-03-21T05:55:52;2.65;;;0.90;;
22415;SDS011;12204;50.600;4.608;2023-03-21T06:01:14;2.33;;;0.90;;
22415;SDS011;12204;50.600;4.608;2023-03-21T06:06:25;2.13;;;0.80;;
22415;SDS011;12204;50.600;4.608;2023-03-21T06:11:32;2.42;;;1.00;;
22415;SDS011;12204;50.600;4.608;2023-03-21T06:16:58;1.92;;;0.95;;
22415;SDS011;12204;50.600;4.608;2023-03-21T06:22:03;2.15;;;0.90;;
22415;SDS011;12204;50.600;4.608;2023-03-21T06:27:09;2.83;;;1.00;;
22415;SDS011;12204;50.600;4.608;2023-03-21T06:32:24;2.22;;;0.90;;
22415;SDS011;12204;50.600;4.608;2023-03-21T06:37:33;1.58;;;0.82;;
22415;SDS011;12204;50.600;4.608;2023-03-21T06:42:36;2.05;;;0.82;;
22415;SDS011;12204;50.600;4.608;2023-03-21T06:47:45;1.83;;;0.70;;
22415;SDS011;12204;50.600;4.608;2023-03-21T06:53:00;2.42;;;0.80;;
22415;SDS011;12204;50.600;4.608;2023-03-21T06:58:13;2.08;;;0.80;;
22415;SDS011;12204;50.600;4.608;2023-03-21T07:03:19;2.42;;;0.90;;
22415;SDS011;12204;50.600;4.608;2023-03-21T07:08:24;2.10;;;0.90;;
22415;SDS011;12204;50.600;4.608;2023-03-21T07:13:28;2.58;;;0.80;;
22415;SDS011;12204;50.600;4.608;2023-03-21T07:18:38;2.28;;;0.90;;
22415;SDS011;12204;50.600;4.608;2023-03-21T07:23:42;2.95;;;0.88;;
22415;SDS011;12204;50.600;4.608;2023-03-21T07:28:45;1.83;;;0.80;;
22415;SDS011;12204;50.600;4.608;2023-03-21T07:33:50;3.67;;;1.00;;
22415;SDS011;12204;50.600;4.608;2023-03-21T07:38:54;1.60;;;0.80;;
22415;SDS011;12204;50.600;4.608;2023-03-21T07:43:58;1.88;;;0.80;;
22415;SDS011;12204;50.600;4.608;2023-03-21T07:49:08;3.17;;;0.90;;
22415;SDS011;12204;50.600;4.608;2023-03-21T07:54:11;2.47;;;0.90;;
22415;SDS011;12204;50.600;4.608;2023-03-21T07:59:15;2.10;;;0.88;;
22415;SDS011;12204;50.600;4.608;2023-03-21T08:04:19;2.00;;;0.80;;
22415;SDS011;12204;50.600;4.608;2023-03-21T08:09:23;2.97;;;0.93;;
22415;SDS011;12204;50.600;4.608;2023-03-21T08:14:26;2.35;;;0.85;;
22415;SDS011;12204;50.600;4.608;2023-03-21T08:19:31;1.60;;;0.88;;
22415;SDS011;12204;50.600;4.608;2023-03-21T08:24:34;2.50;;;1.00;;
22415;SDS011;12204;50.600;4.608;2023-03-21T08:29:38;2.63;;;0.90;;
22415;SDS011;12204;50.600;4.608;2023-03-21T08:34:44;2.33;;;0.80;;
22415;SDS011;12204;50.600;4.608;2023-03-21T08:39:47;2.00;;;0.90;;
22415;SDS011;12204;50.600;4.608;2023-03-21T08:44:51;2.13;;;0.80;;
22415;SDS011;12204;50.600;4.608;2023-03-21T08:49:56;3.13;;;1.00;;
22415;SDS011;12204;50.600;4.608;2023-03-21T08:55:00;2.20;;;0.98;;
22415;SDS011;12204;50.600;4.608;2023-03-21T09:00:04;2.40;;;0.80;;
22415;SDS011;12204;50.600;4.608;2023-03-21T09:05:14;3.00;;;0.90;;
22415;SDS011;12204;50.600;4.608;2023-03-21T09:10:19;1.83;;;0.80;;
22415;SDS011;12204;50.600;4.608;2023-03-21T09:15:25;2.30;;;0.80;;
22415;SDS011;12204;50.600;4.608;2023-03-21T09:20:31;2.25;;;0.85;;
22415;SDS011;12204;50.600;4.608;2023-03-21T09:25:38;1.88;;;0.73;;
22415;SDS011;12204;50.600;4.608;2023-03-21T09:30:42;3.63;;;1.10;;
22415;SDS011;12204;50.600;4.608;2023-03-21T09:35:47;2.25;;;0.90;;
22415;SDS011;12204;50.600;4.608;2023-03-21T09:40:55;1.98;;;0.80;;
22415;SDS011;12204;50.600;4.608;2023-03-21T09:46:12;3.17;;;0.90;;
22415;SDS011;12204;50.600;4.608;2023-03-21T09:51:26;2.15;;;0.90;;
22415;SDS011;12204;50.600;4.608;2023-03-21T09:56:36;1.90;;;0.80;;
22415;SDS011;12204;50.600;4.608;2023-03-21T10:06:52;2.28;;;0.80;;
22415;SDS011;12204;50.600;4.608;2023-03-21T10:12:00;1.58;;;0.80;;
22415;SDS011;12204;50.600;4.608;2023-03-21T10:17:13;1.83;;;0.90;;
22415;SDS011;12204;50.600;4.608;2023-03-21T10:22:32;2.15;;;0.70;;
22415;SDS011;12204;50.600;4.608;2023-03-21T10:27:36;2.00;;;0.85;;
22415;SDS011;12204;50.600;4.608;2023-03-21T10:32:40;2.10;;;0.82;;
22415;SDS011;12204;50.600;4.608;2023-03-21T10:37:44;2.13;;;0.80;;
22415;SDS011;12204;50.600;4.608;2023-03-21T10:42:48;3.60;;;1.00;;
22415;SDS011;12204;50.600;4.608;2023-03-21T10:47:53;2.55;;;0.80;;
22415;SDS011;12204;50.600;4.608;2023-03-21T10:52:59;2.50;;;1.00;;
22415;SDS011;12204;50.600;4.608;2023-03-21T10:58:05;2.15;;;0.90;;
22415;SDS011;12204;50.600;4.608;2023-03-21T11:03:18;2.55;;;0.90;;
22415;SDS011;12204;50.600;4.608;2023-03-21T11:08:26;1.70;;;0.82;;
22415;SDS011;12204;50.600;4.608;2023-03-21T11:13:33;1.98;;;0.88;;
22415;SDS011;12204;50.600;4.608;2023-03-21T11:18:42;2.75;;;1.00;;
22415;SDS011;12204;50.600;4.608;2023-03-21T11:23:54;3.53;;;0.90;;
22415;SDS011;12204;50.600;4.608;2023-03-21T11:28:58;1.83;;;0.73;;
22415;SDS011;12204;50.600;4.608;2023-03-21T11:34:22;2.33;;;0.90;;
22415;SDS011;12204;50.600;4.608;2023-03-21T11:39:33;2.63;;;1.00;;
22415;SDS011;12204;50.600;4.608;2023-03-21T11:44:42;2.55;;;1.00;;
22415;SDS011;12204;50.600;4.608;2023-03-21T11:49:46;3.00;;;0.98;;
22415;SDS011;12204;50.600;4.608;2023-03-21T11:55:02;2.38;;;0.82;;
22415;SDS011;12204;50.600;4.608;2023-03-21T12:00:33;2.20;;;0.90;;
22415;SDS011;12204;50.600;4.608;2023-03-21T12:05:45;2.33;;;0.80;;
22415;SDS011;12204;50.600;4.608;2023-03-21T12:10:59;1.98;;;0.90;;
22415;SDS011;12204;50.600;4.608;2023-03-21T12:16:19;2.72;;;1.00;;
22415;SDS011;12204;50.600;4.608;2023-03-21T12:21:37;2.70;;;0.95;;
22415;SDS011;12204;50.600;4.608;2023-03-21T12:26:57;2.90;;;0.90;;
22415;SDS011;12204;50.600;4.608;2023-03-21T12:32:14;2.33;;;0.80;;
22415;SDS011;12204;50.600;4.608;2023-03-21T12:37:36;3.22;;;1.00;;
22415;SDS011;12204;50.600;4.608;2023-03-21T12:43:01;3.22;;;1.00;;
22415;SDS011;12204;50.600;4.608;2023-03-21T12:48:27;2.30;;;0.90;;
22415;SDS011;12204;50.600;4.608;2023-03-21T12:53:45;2.75;;;0.98;;
22415;SDS011;12204;50.600;4.608;2023-03-21T12:58:59;2.25;;;0.82;;
22415;SDS011;12204;50.600;4.608;2023-03-21T13:04:26;2.58;;;0.98;;
22415;SDS011;12204;50.600;4.608;2023-03-21T13:09:40;2.58;;;0.85;;
22415;SDS011;12204;50.600;4.608;2023-03-21T13:14:47;3.58;;;1.00;;
22415;SDS011;12204;50.600;4.608;2023-03-21T13:20:17;2.08;;;0.90;;
22415;SDS011;12204;50.600;4.608;2023-03-21T13:25:28;1.88;;;0.88;;
22415;SDS011;12204;50.600;4.608;2023-03-21T13:30:35;2.75;;;0.90;;
22415;SDS011;12204;50.600;4.608;2023-03-21T13:35:40;3.53;;;0.90;;
22415;SDS011;12204;50.600;4.608;2023-03-21T13:40:47;2.97;;;0.90;;
22415;SDS011;12204;50.600;4.608;2023-03-21T13:45:54;2.00;;;0.90;;
22415;SDS011;12204;50.600;4.608;2023-03-21T13:50:58;3.78;;;1.00;;
22415;SDS011;12204;50.600;4.608;2023-03-21T13:56:20;2.53;;;0.90;;
22415;SDS011;12204;50.600;4.608;2023-03-21T14:01:28;2.42;;;0.90;;
22415;SDS011;12204;50.600;4.608;2023-03-21T14:06:38;2.25;;;0.90;;
22415;SDS011;12204;50.600;4.608;2023-03-21T14:11:52;2.78;;;0.90;;
22415;SDS011;12204;50.600;4.608;2023-03-21T14:17:12;3.05;;;0.85;;
22415;SDS011;12204;50.600;4.608;2023-03-21T14:22:16;3.22;;;0.93;;
22415;SDS011;12204;50.600;4.608;2023-03-21T14:27:20;2.05;;;0.80;;
22415;SDS011;12204;50.600;4.608;2023-03-21T14:32:26;2.35;;;0.90;;
22415;SDS011;12204;50.600;4.608;2023-03-21T14:37:32;2.50;;;0.90;;
22415;SDS011;12204;50.600;4.608;2023-03-21T14:42:46;2.30;;;1.00;;
22415;SDS011;12204;50.600;4.608;2023-03-21T14:47:57;2.85;;;1.00;;
22415;SDS011;12204;50.600;4.608;2023-03-21T14:53:06;2.75;;;1.00;;
22415;SDS011;12204;50.600;4.608;2023-03-21T14:58:16;2.08;;;0.93;;
22415;SDS011;12204;50.600;4.608;2023-03-21T15:03:21;2.55;;;0.90;;
22415;SDS011;12204;50.600;4.608;2023-03-21T15:08:28;2.23;;;1.00;;
22415;SDS011;12204;50.600;4.608;2023-03-21T15:13:32;2.13;;;0.90;;
22415;SDS011;12204;50.600;4.608;2023-03-21T15:18:43;2.28;;;0.90;;
22415;SDS011;12204;50.600;4.608;2023-03-21T15:23:48;1.90;;;0.90;;
22415;SDS011;12204;50.600;4.608;2023-03-21T15:28:56;2.20;;;0.90;;
22415;SDS011;12204;50.600;4.608;2023-03-21T15:34:02;2.30;;;0.90;;
22415;SDS011;12204;50.600;4.608;2023-03-21T15:39:07;1.83;;;0.80;;
22415;SDS011;12204;50.600;4.608;2023-03-21T15:44:16;2.53;;;0.90;;
22415;SDS011;12204;50.600;4.608;2023-03-21T15:54:33;2.65;;;0.90;;
22415;SDS011;12204;50.600;4.608;2023-03-21T15:59:45;2.15;;;0.88;;
22415;SDS011;12204;50.600;4.608;2023-03-21T16:04:57;1.50;;;0.80;;
22415;SDS011;12204;50.600;4.608;2023-03-21T16:10:03;2.00;;;0.80;;
22415;SDS011;12204;50.600;4.608;2023-03-21T16:15:28;1.73;;;0.80;;
22415;SDS011;12204;50.600;4.608;2023-03-21T16:20:34;2.50;;;0.90;;
22415;SDS011;12204;50.600;4.608;2023-03-21T16:25:42;2.40;;;0.93;;
22415;SDS011;12204;50.600;4.608;2023-03-21T16:30:47;3.60;;;0.90;;
22415;SDS011;12204;50.600;4.608;2023-03-21T16:35:52;3.58;;;0.98;;
22415;SDS011;12204;50.600;4.608;2023-03-21T16:40:57;2.13;;;0.77;;
22415;SDS011;12204;50.600;4.608;2023-03-21T16:46:04;1.85;;;0.82;;
22415;SDS011;12204;50.600;4.608;2023-03-21T16:51:12;2.28;;;0.80;;
22415;SDS011;12204;50.600;4.608;2023-03-21T16:56:18;2.08;;;0.85;;
22415;SDS011;12204;50.600;4.608;2023-03-21T17:01:26;1.40;;;0.85;;
22415;SDS011;12204;50.600;4.608;2023-03-21T17:06:31;2.53;;;0.90;;
22415;SDS011;12204;50.600;4.608;2023-03-21T17:11:41;1.77;;;0.73;;
22415;SDS011;12204;50.600;4.608;2023-03-21T17:16:45;2.40;;;1.00;;
22415;SDS011;12204;50.600;4.608;2023-03-21T17:21:51;2.75;;;0.90;;
22415;SDS011;12204;50.600;4.608;2023-03-21T17:26:55;2.30;;;0.90;;
22415;SDS011;12204;50.600;4.608;2023-03-21T17:31:59;2.00;;;0.80;;
22415;SDS011;12204;50.600;4.608;2023-03-21T17:37:08;1.52;;;0.70;;
22415;SDS011;12204;50.600;4.608;2023-03-21T17:42:14;2.40;;;0.90;;
22415;SDS011;12204;50.600;4.608;2023-03-21T17:47:18;2.40;;;0.70;;
22415;SDS011;12204;50.600;4.608;2023-03-21T17:52:27;2.37;;;0.90;;
22415;SDS011;12204;50.600;4.608;2023-03-21T17:57:30;1.60;;;0.85;;
22415;SDS011;12204;50.600;4.608;2023-03-21T18:02:34;2.17;;;0.95;;
22415;SDS011;12204;50.600;4.608;2023-03-21T18:07:39;1.35;;;0.80;;
22415;SDS011;12204;50.600;4.608;2023-03-21T18:13:05;1.93;;;0.80;;
22415;SDS011;12204;50.600;4.608;2023-03-21T18:18:08;1.48;;;0.80;;
22415;SDS011;12204;50.600;4.608;2023-03-21T18:23:13;2.80;;;0.80;;
22415;SDS011;12204;50.600;4.608;2023-03-21T18:28:19;2.67;;;0.90;;
22415;SDS011;12204;50.600;4.608;2023-03-21T18:33:23;1.27;;;0.70;;
22415;SDS011;12204;50.600;4.608;2023-03-21T18:38:29;1.73;;;0.90;;
22415;SDS011;12204;50.600;4.608;2023-03-21T18:43:32;2.17;;;0.93;;
22415;SDS011;12204;50.600;4.608;2023-03-21T18:48:56;2.15;;;0.90;;
22415;SDS011;12204;50.600;4.608;2023-03-21T18:54:21;1.77;;;0.90;;
22415;SDS011;12204;50.600;4.608;2023-03-21T18:59:25;1.95;;;0.80;;
22415;SDS011;12204;50.600;4.608;2023-03-21T19:04:28;2.10;;;0.80;;
22415;SDS011;12204;50.600;4.608;2023-03-21T19:09:34;3.33;;;0.95;;
22415;SDS011;12204;50.600;4.608;2023-03-21T19:14:58;2.33;;;0.95;;
22415;SDS011;12204;50.600;4.608;2023-03-21T19:20:02;1.90;;;0.80;;
22415;SDS011;12204;50.600;4.608;2023-03-21T19:25:08;1.75;;;0.90;;
22415;SDS011;12204;50.600;4.608;2023-03-21T19:30:13;2.42;;;1.00;;
22415;SDS011;12204;50.600;4.608;2023-03-21T19:35:17;2.95;;;0.90;;
22415;SDS011;12204;50.600;4.608;2023-03-21T19:40:23;2.22;;;0.90;;
22415;SDS011;12204;50.600;4.608;2023-03-21T19:45:27;2.88;;;1.05;;
22415;SDS011;12204;50.600;4.608;2023-03-21T19:50:30;2.42;;;1.00;;
22415;SDS011;12204;50.600;4.608;2023-03-21T19:55:55;2.42;;;0.82;;
22415;SDS011;12204;50.600;4.608;2023-03-21T20:01:04;2.92;;;1.20;;
22415;SDS011;12204;50.600;4.608;2023-03-21T20:06:08;2.25;;;1.10;;
22415;SDS011;12204;50.600;4.608;2023-03-21T20:11:14;3.17;;;1.00;;
22415;SDS011;12204;50.600;4.608;2023-03-21T20:16:18;2.15;;;0.90;;
22415;SDS011;12204;50.600;4.608;2023-03-21T20:21:22;2.78;;;1.00;;
22415;SDS011;12204;50.600;4.608;2023-03-21T20:26:27;3.38;;;1.00;;
22415;SDS011;12204;50.600;4.608;2023-03-21T20:31:31;3.33;;;1.17;;
22415;SDS011;12204;50.600;4.608;2023-03-21T20:36:36;2.75;;;1.00;;
22415;SDS011;12204;50.600;4.608;2023-03-21T20:41:44;3.03;;;1.10;;
22415;SDS011;12204;50.600;4.608;2023-03-21T20:46:49;3.00;;;1.15;;
22415;SDS011;12204;50.600;4.608;2023-03-21T20:51:53;2.92;;;1.10;;
22415;SDS011;12204;50.600;4.608;2023-03-21T20:57:30;3.35;;;1.30;;
22415;SDS011;12204;50.600;4.608;2023-03-21T21:02:35;2.58;;;1.10;;
22415;SDS011;12204;50.600;4.608;2023-03-21T21:07:38;3.05;;;1.10;;
22415;SDS011;12204;50.600;4.608;2023-03-21T21:12:44;4.22;;;1.20;;
22415;SDS011;12204;50.600;4.608;2023-03-21T21:17:48;3.65;;;1.30;;
22415;SDS011;12204;50.600;4.608;2023-03-21T21:23:06;4.40;;;1.30;;
22415;SDS011;12204;50.600;4.608;2023-03-21T21:28:11;3.42;;;1.20;;
22415;SDS011;12204;50.600;4.608;2023-03-21T21:33:15;3.55;;;1.20;;
22415;SDS011;12204;50.600;4.608;2023-03-21T21:38:21;3.65;;;1.20;;
22415;SDS011;12204;50.600;4.608;2023-03-21T21:43:26;3.28;;;1.20;;
22415;SDS011;12204;50.600;4.608;2023-03-21T21:48:31;3.33;;;1.27;;
22415;SDS011;12204;50.600;4.608;2023-03-21T21:53:34;4.10;;;1.30;;
22415;SDS011;12204;50.600;4.608;2023-03-21T21:58:40;2.75;;;1.10;;
22415;SDS011;12204;50.600;4.608;2023-03-21T22:03:47;4.40;;;1.30;;
22415;SDS011;12204;50.600;4.608;2023-03-21T22:08:51;4.13;;;1.48;;
22415;SDS011;12204;50.600;4.608;2023-03-21T22:13:58;3.00;;;1.30;;
22415;SDS011;12204;50.600;4.608;2023-03-21T22:19:02;3.13;;;1.30;;
22415;SDS011;12204;50.600;4.608;2023-03-21T22:24:05;4.15;;;1.42;;
22415;SDS011;12204;50.600;4.608;2023-03-21T22:29:10;2.97;;;1.27;;
22415;SDS011;12204;50.600;4.608;2023-03-21T22:34:14;3.35;;;1.40;;
22415;SDS011;12204;50.600;4.608;2023-03-21T22:39:18;4.03;;;1.40;;
22415;SDS011;12204;50.600;4.608;2023-03-21T22:44:27;5.28;;;1.35;;
22415;SDS011;12204;50.600;4.608;2023-03-21T22:49:35;5.30;;;1.50;;
22415;SDS011;12204;50.600;4.608;2023-03-21T22:54:40;4.65;;;1.70;;
22415;SDS011;12204;50.600;4.608;2023-03-21T22:59:45;3.38;;;1.30;;
22415;SDS011;12204;50.600;4.608;2023-03-21T23:04:48;3.75;;;1.52;;
22415;SDS011;12204;50.600;4.608;2023-03-21T23:09:52;3.40;;;1.33;;
22415;SDS011;12204;50.600;4.608;2023-03-21T23:14:57;4.13;;;1.40;;
22415;SDS011;12204;50.600;4.608;2023-03-21T23:20:03;4.18;;;1.50;;
22415;SDS011;12204;50.600;4.608;2023-03-21T23:25:08;4.70;;;1.63;;
22415;SDS011;12204;50.600;4.608;2023-03-21T23:30:14;4.13;;;1.50;;
22415;SDS011;12204;50.600;4.608;2023-03-21T23:35:18;4.45;;;1.60;;
22415;SDS011;12204;50.600;4.608;2023-03-21T23:40:21;4.55;;;1.52;;
22415;SDS011;12204;50.600;4.608;2023-03-21T23:45:26;4.82;;;1.60;;
22415;SDS011;12204;50.600;4.608;2023-03-21T23:50:29;4.15;;;1.60;;
22415;SDS011;12204;50.600;4.608;2023-03-21T23:55:34;4.13;;;1.60;;
